Portada
METAR-TAF:

METAR-TAF

Aeropuertos :

Base Aérea de Morón

Morón de la Frontera, España

latitud: 37-09N, longitud: 005-37W, altitud: 87 m

Observación

El informe se hizo hace 46 minutos, a las 07:00 UTC
Viento 4 kt del sureste
Temperatura 19°C
Humedad 83%
Presión 1015 hPa
Visibilidad 10 km o más
sin nubes por debajo de 1500 m y sin presencia de cumulonimbus.

METAR: LEMO 140700Z 14004KT CAVOK 19/16 Q1015 NOSIG

Hora: 09:46 (07:46 UTC)

Pronóstico

El informe se hizo hace 5 horas y 46 minutos, a las 02:00 UTC
Pronóstico válido del 14 a las 03 UTC al 15 a las 03 UTC
Viento 5 kt del sur
Visibilidad 10 km o más
sin nubes por debajo de 1500 m y sin presencia de cumulonimbus.
Evolucionando progresivamente
del 14 a las 10 UTC al 14 a las 12 UTC
Viento 10 kt del suroeste

TAF: LEMO 140200Z 1403/1503 17005KT CAVOK TX32/1415Z TN18/1405Z BECMG 1410/1412 23010KT

Observaciones y pronósticos meteorológicos de más de 4000 aeropuertos (mensajes METAR y TAF).

Los puntos amarillos y rojos representan las estaciones disponibles.

Ponga el ratón en el punto deseado para ver el nombre de la estación.

Haga clic para ver las observaciones y los pronósticos meteorológicos.

Para cambiar el mapa : haga clic en los botones verdes con una cruz de color negro para hacer un zoom, en el botón verde con un guión para alejar o en las flechas verdes para mapas adyacentes.


METAR-TAF: